sensor_id;sensor_type;location;lat;lon;timestamp;temperature;humidity
12481;DHT22;6305;48.398;11.762;2022-09-24T00:02:24;8.00;99.90
12481;DHT22;6305;48.398;11.762;2022-09-24T00:04:51;7.90;99.90
12481;DHT22;6305;48.398;11.762;2022-09-24T00:07:17;7.90;99.90
12481;DHT22;6305;48.398;11.762;2022-09-24T00:09:45;7.80;99.90
12481;DHT22;6305;48.398;11.762;2022-09-24T00:12:12;7.80;99.90
12481;DHT22;6305;48.398;11.762;2022-09-24T00:14:39;7.70;99.90
12481;DHT22;6305;48.398;11.762;2022-09-24T00:17:07;7.70;99.90
12481;DHT22;6305;48.398;11.762;2022-09-24T00:19:34;7.60;99.90
12481;DHT22;6305;48.398;11.762;2022-09-24T00:22:00;7.60;99.90
12481;DHT22;6305;48.398;11.762;2022-09-24T00:24:27;7.60;99.90
12481;DHT22;6305;48.398;11.762;2022-09-24T00:27:17;7.60;99.90
12481;DHT22;6305;48.398;11.762;2022-09-24T00:29:43;7.50;99.90
12481;DHT22;6305;48.398;11.762;2022-09-24T00:32:11;7.60;99.90
12481;DHT22;6305;48.398;11.762;2022-09-24T00:34:38;7.60;99.90
12481;DHT22;6305;48.398;11.762;2022-09-24T00:37:05;7.60;99.90
12481;DHT22;6305;48.398;11.762;2022-09-24T00:39:32;7.60;99.90
12481;DHT22;6305;48.398;11.762;2022-09-24T00:41:58;7.60;99.90
12481;DHT22;6305;48.398;11.762;2022-09-24T00:44:48;7.60;99.90
12481;DHT22;6305;48.398;11.762;2022-09-24T00:47:25;7.70;99.90
12481;DHT22;6305;48.398;11.762;2022-09-24T00:49:57;7.70;99.90
12481;DHT22;6305;48.398;11.762;2022-09-24T00:52:27;7.70;99.90
12481;DHT22;6305;48.398;11.762;2022-09-24T00:54:54;7.70;99.90
12481;DHT22;6305;48.398;11.762;2022-09-24T00:57:21;7.70;99.90
12481;DHT22;6305;48.398;11.762;2022-09-24T00:59:48;7.70;99.90
12481;DHT22;6305;48.398;11.762;2022-09-24T01:02:16;7.80;99.90
12481;DHT22;6305;48.398;11.762;2022-09-24T01:04:44;7.80;99.90
12481;DHT22;6305;48.398;11.762;2022-09-24T01:07:13;7.80;99.90
12481;DHT22;6305;48.398;11.762;2022-09-24T01:09:40;7.80;99.90
12481;DHT22;6305;48.398;11.762;2022-09-24T01:12:15;7.80;99.90
12481;DHT22;6305;48.398;11.762;2022-09-24T01:14:56;7.80;99.90
12481;DHT22;6305;48.398;11.762;2022-09-24T01:17:28;7.80;99.90
12481;DHT22;6305;48.398;11.762;2022-09-24T01:20:22;7.70;99.90
12481;DHT22;6305;48.398;11.762;2022-09-24T01:23:14;7.70;99.90
12481;DHT22;6305;48.398;11.762;2022-09-24T01:25:54;7.70;99.90
12481;DHT22;6305;48.398;11.762;2022-09-24T01:28:32;7.70;99.90
12481;DHT22;6305;48.398;11.762;2022-09-24T01:31:04;7.60;99.90
12481;DHT22;6305;48.398;11.762;2022-09-24T01:33:33;7.60;99.90
12481;DHT22;6305;48.398;11.762;2022-09-24T01:36:03;7.60;99.90
12481;DHT22;6305;48.398;11.762;2022-09-24T01:38:34;7.50;99.90
12481;DHT22;6305;48.398;11.762;2022-09-24T01:41:04;7.50;99.90
12481;DHT22;6305;48.398;11.762;2022-09-24T01:43:32;7.50;99.90
12481;DHT22;6305;48.398;11.762;2022-09-24T01:46:03;7.40;99.90
12481;DHT22;6305;48.398;11.762;2022-09-24T01:48:31;7.30;99.90
12481;DHT22;6305;48.398;11.762;2022-09-24T01:51:01;7.30;99.90
12481;DHT22;6305;48.398;11.762;2022-09-24T01:53:33;7.20;99.90
12481;DHT22;6305;48.398;11.762;2022-09-24T01:56:06;7.20;99.90
12481;DHT22;6305;48.398;11.762;2022-09-24T01:58:37;7.10;99.90
12481;DHT22;6305;48.398;11.762;2022-09-24T02:01:10;7.00;99.90
12481;DHT22;6305;48.398;11.762;2022-09-24T02:03:40;7.00;99.90
12481;DHT22;6305;48.398;11.762;2022-09-24T02:06:12;7.00;99.90
12481;DHT22;6305;48.398;11.762;2022-09-24T02:08:44;7.00;99.90
12481;DHT22;6305;48.398;11.762;2022-09-24T02:11:12;6.90;99.90
12481;DHT22;6305;48.398;11.762;2022-09-24T02:13:42;6.90;99.90
12481;DHT22;6305;48.398;11.762;2022-09-24T02:16:14;6.90;99.90
12481;DHT22;6305;48.398;11.762;2022-09-24T02:18:44;6.90;99.90
12481;DHT22;6305;48.398;11.762;2022-09-24T02:21:14;6.90;99.90
12481;DHT22;6305;48.398;11.762;2022-09-24T02:23:44;6.80;99.90
12481;DHT22;6305;48.398;11.762;2022-09-24T02:26:12;6.80;99.90
12481;DHT22;6305;48.398;11.762;2022-09-24T02:28:39;6.70;99.90
12481;DHT22;6305;48.398;11.762;2022-09-24T02:31:10;6.70;99.90
12481;DHT22;6305;48.398;11.762;2022-09-24T02:33:41;6.60;99.90
12481;DHT22;6305;48.398;11.762;2022-09-24T02:36:27;6.60;99.90
12481;DHT22;6305;48.398;11.762;2022-09-24T02:38:54;6.60;99.90
12481;DHT22;6305;48.398;11.762;2022-09-24T02:41:22;6.60;99.90
12481;DHT22;6305;48.398;11.762;2022-09-24T02:43:50;6.60;99.90
12481;DHT22;6305;48.398;11.762;2022-09-24T02:46:18;6.60;99.90
12481;DHT22;6305;48.398;11.762;2022-09-24T02:48:46;6.70;99.90
12481;DHT22;6305;48.398;11.762;2022-09-24T02:51:13;6.70;99.90
12481;DHT22;6305;48.398;11.762;2022-09-24T02:53:39;6.70;99.90
12481;DHT22;6305;48.398;11.762;2022-09-24T02:56:06;6.70;99.90
12481;DHT22;6305;48.398;11.762;2022-09-24T02:58:33;6.70;99.90
12481;DHT22;6305;48.398;11.762;2022-09-24T03:01:02;6.70;99.90
12481;DHT22;6305;48.398;11.762;2022-09-24T03:03:29;6.70;99.90
12481;DHT22;6305;48.398;11.762;2022-09-24T03:05:57;6.70;99.90
12481;DHT22;6305;48.398;11.762;2022-09-24T03:08:24;6.70;99.90
12481;DHT22;6305;48.398;11.762;2022-09-24T03:10:51;6.70;99.90
12481;DHT22;6305;48.398;11.762;2022-09-24T03:13:20;6.80;99.90
12481;DHT22;6305;48.398;11.762;2022-09-24T03:15:47;6.80;99.90
12481;DHT22;6305;48.398;11.762;2022-09-24T03:18:14;6.90;99.90
12481;DHT22;6305;48.398;11.762;2022-09-24T03:20:41;6.90;99.90
12481;DHT22;6305;48.398;11.762;2022-09-24T03:23:09;7.00;99.90
12481;DHT22;6305;48.398;11.762;2022-09-24T03:25:35;7.00;99.90
12481;DHT22;6305;48.398;11.762;2022-09-24T03:28:02;7.10;99.90
12481;DHT22;6305;48.398;11.762;2022-09-24T03:30:29;7.20;99.90
12481;DHT22;6305;48.398;11.762;2022-09-24T03:33:13;7.20;99.90
12481;DHT22;6305;48.398;11.762;2022-09-24T03:35:40;7.30;99.90
12481;DHT22;6305;48.398;11.762;2022-09-24T03:38:09;7.30;99.90
12481;DHT22;6305;48.398;11.762;2022-09-24T03:40:36;7.40;99.90
12481;DHT22;6305;48.398;11.762;2022-09-24T03:43:02;7.40;99.90
12481;DHT22;6305;48.398;11.762;2022-09-24T03:45:29;7.50;99.90
12481;DHT22;6305;48.398;11.762;2022-09-24T03:47:56;7.40;99.90
12481;DHT22;6305;48.398;11.762;2022-09-24T03:50:22;7.50;99.90
12481;DHT22;6305;48.398;11.762;2022-09-24T03:52:49;7.50;99.90
12481;DHT22;6305;48.398;11.762;2022-09-24T03:55:17;7.50;99.90
12481;DHT22;6305;48.398;11.762;2022-09-24T03:57:44;7.50;99.90
12481;DHT22;6305;48.398;11.762;2022-09-24T04:00:11;7.50;99.90
12481;DHT22;6305;48.398;11.762;2022-09-24T04:02:38;7.50;99.90
12481;DHT22;6305;48.398;11.762;2022-09-24T04:05:06;7.50;99.90
12481;DHT22;6305;48.398;11.762;2022-09-24T04:07:33;7.50;99.90
12481;DHT22;6305;48.398;11.762;2022-09-24T04:09:59;7.50;99.90
12481;DHT22;6305;48.398;11.762;2022-09-24T04:12:28;7.50;99.90
12481;DHT22;6305;48.398;11.762;2022-09-24T04:14:55;7.50;99.90
12481;DHT22;6305;48.398;11.762;2022-09-24T04:17:22;7.50;99.90
12481;DHT22;6305;48.398;11.762;2022-09-24T04:19:49;7.50;99.90
12481;DHT22;6305;48.398;11.762;2022-09-24T04:22:17;7.50;99.90
12481;DHT22;6305;48.398;11.762;2022-09-24T04:24:44;7.60;99.90
12481;DHT22;6305;48.398;11.762;2022-09-24T04:27:11;7.60;99.90
12481;DHT22;6305;48.398;11.762;2022-09-24T04:29:39;7.60;99.90
12481;DHT22;6305;48.398;11.762;2022-09-24T04:32:06;7.60;99.90
12481;DHT22;6305;48.398;11.762;2022-09-24T04:34:33;7.60;99.90
12481;DHT22;6305;48.398;11.762;2022-09-24T04:36:59;7.70;99.90
12481;DHT22;6305;48.398;11.762;2022-09-24T04:39:26;7.70;99.90
12481;DHT22;6305;48.398;11.762;2022-09-24T04:41:53;7.60;99.90
12481;DHT22;6305;48.398;11.762;2022-09-24T04:44:20;7.60;99.90
12481;DHT22;6305;48.398;11.762;2022-09-24T04:46:48;7.50;99.90
12481;DHT22;6305;48.398;11.762;2022-09-24T04:49:15;7.40;99.90
12481;DHT22;6305;48.398;11.762;2022-09-24T04:51:41;7.40;99.90
12481;DHT22;6305;48.398;11.762;2022-09-24T04:54:08;7.30;99.90
12481;DHT22;6305;48.398;11.762;2022-09-24T04:56:35;7.30;99.90
12481;DHT22;6305;48.398;11.762;2022-09-24T04:59:01;7.30;99.90
12481;DHT22;6305;48.398;11.762;2022-09-24T05:01:28;7.30;99.90
12481;DHT22;6305;48.398;11.762;2022-09-24T05:03:56;7.20;99.90
12481;DHT22;6305;48.398;11.762;2022-09-24T05:06:23;7.30;99.90
12481;DHT22;6305;48.398;11.762;2022-09-24T05:08:49;7.30;99.90
12481;DHT22;6305;48.398;11.762;2022-09-24T05:11:16;7.30;99.90
12481;DHT22;6305;48.398;11.762;2022-09-24T05:13:44;7.30;99.90
12481;DHT22;6305;48.398;11.762;2022-09-24T05:16:11;7.40;99.90
12481;DHT22;6305;48.398;11.762;2022-09-24T05:18:37;7.50;99.90
12481;DHT22;6305;48.398;11.762;2022-09-24T05:21:06;7.50;99.90
12481;DHT22;6305;48.398;11.762;2022-09-24T05:23:32;7.60;99.90
12481;DHT22;6305;48.398;11.762;2022-09-24T05:25:59;7.60;99.90
12481;DHT22;6305;48.398;11.762;2022-09-24T05:28:43;7.60;99.90
12481;DHT22;6305;48.398;11.762;2022-09-24T05:31:10;7.70;99.90
12481;DHT22;6305;48.398;11.762;2022-09-24T05:33:37;7.70;99.90
12481;DHT22;6305;48.398;11.762;2022-09-24T05:36:03;7.80;99.90
12481;DHT22;6305;48.398;11.762;2022-09-24T05:38:32;7.90;99.90
12481;DHT22;6305;48.398;11.762;2022-09-24T05:40:58;8.00;99.90
12481;DHT22;6305;48.398;11.762;2022-09-24T05:43:25;8.00;99.90
12481;DHT22;6305;48.398;11.762;2022-09-24T05:45:53;8.10;99.90
12481;DHT22;6305;48.398;11.762;2022-09-24T05:48:23;8.30;99.90
12481;DHT22;6305;48.398;11.762;2022-09-24T05:50:50;8.40;99.90
12481;DHT22;6305;48.398;11.762;2022-09-24T05:53:20;8.50;99.90
12481;DHT22;6305;48.398;11.762;2022-09-24T05:55:48;8.70;99.90
12481;DHT22;6305;48.398;11.762;2022-09-24T05:58:15;8.80;99.90
12481;DHT22;6305;48.398;11.762;2022-09-24T06:00:42;9.00;99.90
12481;DHT22;6305;48.398;11.762;2022-09-24T06:03:11;9.30;99.90
12481;DHT22;6305;48.398;11.762;2022-09-24T06:05:43;9.50;99.90
12481;DHT22;6305;48.398;11.762;2022-09-24T06:08:12;9.60;99.90
12481;DHT22;6305;48.398;11.762;2022-09-24T06:10:39;9.70;99.90
12481;DHT22;6305;48.398;11.762;2022-09-24T06:13:08;9.80;99.90
12481;DHT22;6305;48.398;11.762;2022-09-24T06:15:36;9.90;99.90
12481;DHT22;6305;48.398;11.762;2022-09-24T06:18:03;10.20;99.90
12481;DHT22;6305;48.398;11.762;2022-09-24T06:20:31;10.50;99.90
12481;DHT22;6305;48.398;11.762;2022-09-24T06:22:57;10.80;99.90
12481;DHT22;6305;48.398;11.762;2022-09-24T06:25:25;11.10;99.90
12481;DHT22;6305;48.398;11.762;2022-09-24T06:27:55;11.40;99.90
12481;DHT22;6305;48.398;11.762;2022-09-24T06:30:26;11.70;99.90
12481;DHT22;6305;48.398;11.762;2022-09-24T06:32:53;11.90;99.90
12481;DHT22;6305;48.398;11.762;2022-09-24T06:35:20;12.10;99.90
12481;DHT22;6305;48.398;11.762;2022-09-24T06:37:47;12.30;99.90
12481;DHT22;6305;48.398;11.762;2022-09-24T06:40:14;12.60;99.90
12481;DHT22;6305;48.398;11.762;2022-09-24T06:42:41;12.70;99.90
12481;DHT22;6305;48.398;11.762;2022-09-24T06:45:09;12.80;99.90
12481;DHT22;6305;48.398;11.762;2022-09-24T06:47:37;12.80;99.90
12481;DHT22;6305;48.398;11.762;2022-09-24T06:50:05;12.90;99.90
12481;DHT22;6305;48.398;11.762;2022-09-24T06:52:36;12.90;99.90
12481;DHT22;6305;48.398;11.762;2022-09-24T06:55:03;13.00;99.90
12481;DHT22;6305;48.398;11.762;2022-09-24T06:57:29;13.20;99.90
12481;DHT22;6305;48.398;11.762;2022-09-24T06:59:56;13.50;99.90
12481;DHT22;6305;48.398;11.762;2022-09-24T07:02:23;14.00;99.90
12481;DHT22;6305;48.398;11.762;2022-09-24T07:04:51;14.50;99.90
12481;DHT22;6305;48.398;11.762;2022-09-24T07:07:18;15.00;99.90
12481;DHT22;6305;48.398;11.762;2022-09-24T07:09:58;15.10;99.90
12481;DHT22;6305;48.398;11.762;2022-09-24T07:12:27;14.90;99.90
12481;DHT22;6305;48.398;11.762;2022-09-24T07:14:53;14.70;99.90
12481;DHT22;6305;48.398;11.762;2022-09-24T07:17:20;14.50;99.90
12481;DHT22;6305;48.398;11.762;2022-09-24T07:19:47;14.30;99.90
12481;DHT22;6305;48.398;11.762;2022-09-24T07:22:15;14.20;99.90
12481;DHT22;6305;48.398;11.762;2022-09-24T07:24:42;13.90;99.90
12481;DHT22;6305;48.398;11.762;2022-09-24T07:27:08;13.60;99.90
12481;DHT22;6305;48.398;11.762;2022-09-24T07:29:36;13.30;99.90
12481;DHT22;6305;48.398;11.762;2022-09-24T07:32:03;12.90;99.90
12481;DHT22;6305;48.398;11.762;2022-09-24T07:34:31;12.80;99.90
12481;DHT22;6305;48.398;11.762;2022-09-24T07:36:58;12.60;99.90
12481;DHT22;6305;48.398;11.762;2022-09-24T07:39:26;12.50;99.90
12481;DHT22;6305;48.398;11.762;2022-09-24T07:41:53;12.30;99.90
12481;DHT22;6305;48.398;11.762;2022-09-24T07:44:20;12.00;99.90
12481;DHT22;6305;48.398;11.762;2022-09-24T07:46:48;11.80;99.90
12481;DHT22;6305;48.398;11.762;2022-09-24T07:49:15;11.70;99.90
12481;DHT22;6305;48.398;11.762;2022-09-24T07:51:42;11.50;99.90
12481;DHT22;6305;48.398;11.762;2022-09-24T07:54:09;11.50;99.90
12481;DHT22;6305;48.398;11.762;2022-09-24T07:56:37;11.50;99.90
12481;DHT22;6305;48.398;11.762;2022-09-24T07:59:04;11.50;99.90
12481;DHT22;6305;48.398;11.762;2022-09-24T08:01:32;11.60;99.90
12481;DHT22;6305;48.398;11.762;2022-09-24T08:03:59;11.70;99.90
12481;DHT22;6305;48.398;11.762;2022-09-24T08:06:26;11.70;99.90
12481;DHT22;6305;48.398;11.762;2022-09-24T08:08:53;11.90;99.90
12481;DHT22;6305;48.398;11.762;2022-09-24T08:11:21;12.10;99.90
12481;DHT22;6305;48.398;11.762;2022-09-24T08:13:49;12.30;99.90
12481;DHT22;6305;48.398;11.762;2022-09-24T08:16:16;12.50;99.90
12481;DHT22;6305;48.398;11.762;2022-09-24T08:18:46;12.70;99.90
12481;DHT22;6305;48.398;11.762;2022-09-24T08:21:13;12.80;99.90
12481;DHT22;6305;48.398;11.762;2022-09-24T08:23:40;13.00;99.90
12481;DHT22;6305;48.398;11.762;2022-09-24T08:26:08;13.00;99.90
12481;DHT22;6305;48.398;11.762;2022-09-24T08:28:36;13.00;99.90
12481;DHT22;6305;48.398;11.762;2022-09-24T08:31:07;13.10;99.90
12481;DHT22;6305;48.398;11.762;2022-09-24T08:33:35;13.10;99.90
12481;DHT22;6305;48.398;11.762;2022-09-24T08:36:05;13.10;99.90
12481;DHT22;6305;48.398;11.762;2022-09-24T08:38:32;13.00;99.90
12481;DHT22;6305;48.398;11.762;2022-09-24T08:41:06;13.00;99.90
12481;DHT22;6305;48.398;11.762;2022-09-24T08:43:41;12.90;99.90
12481;DHT22;6305;48.398;11.762;2022-09-24T08:46:15;13.00;99.90
12481;DHT22;6305;48.398;11.762;2022-09-24T08:49:01;13.00;99.90
12481;DHT22;6305;48.398;11.762;2022-09-24T08:51:34;13.10;99.90
12481;DHT22;6305;48.398;11.762;2022-09-24T08:54:06;13.20;99.90
12481;DHT22;6305;48.398;11.762;2022-09-24T08:56:36;13.30;99.90
12481;DHT22;6305;48.398;11.762;2022-09-24T08:59:13;13.50;99.90
12481;DHT22;6305;48.398;11.762;2022-09-24T09:01:47;13.80;99.90
12481;DHT22;6305;48.398;11.762;2022-09-24T09:04:22;13.90;99.90
12481;DHT22;6305;48.398;11.762;2022-09-24T09:06:59;14.30;99.90
12481;DHT22;6305;48.398;11.762;2022-09-24T09:09:41;14.50;99.90
12481;DHT22;6305;48.398;11.762;2022-09-24T09:12:13;14.80;99.90
12481;DHT22;6305;48.398;11.762;2022-09-24T09:14:45;15.10;99.90
12481;DHT22;6305;48.398;11.762;2022-09-24T09:17:28;15.20;99.90
12481;DHT22;6305;48.398;11.762;2022-09-24T09:19:58;15.40;99.90
12481;DHT22;6305;48.398;11.762;2022-09-24T09:22:30;15.50;99.90
12481;DHT22;6305;48.398;11.762;2022-09-24T09:25:02;15.70;99.90
12481;DHT22;6305;48.398;11.762;2022-09-24T09:27:29;15.80;99.90
12481;DHT22;6305;48.398;11.762;2022-09-24T09:29:57;16.00;99.90
12481;DHT22;6305;48.398;11.762;2022-09-24T09:32:38;16.20;99.90
12481;DHT22;6305;48.398;11.762;2022-09-24T09:35:14;16.40;99.90
12481;DHT22;6305;48.398;11.762;2022-09-24T09:37:48;16.30;99.90
12481;DHT22;6305;48.398;11.762;2022-09-24T09:40:28;16.30;99.90
12481;DHT22;6305;48.398;11.762;2022-09-24T09:42:59;16.20;99.90
12481;DHT22;6305;48.398;11.762;2022-09-24T09:45:30;16.20;99.90
12481;DHT22;6305;48.398;11.762;2022-09-24T09:48:00;16.20;99.90
12481;DHT22;6305;48.398;11.762;2022-09-24T09:50:31;16.40;99.90
12481;DHT22;6305;48.398;11.762;2022-09-24T09:53:00;16.70;99.90
12481;DHT22;6305;48.398;11.762;2022-09-24T09:55:29;16.90;99.90
12481;DHT22;6305;48.398;11.762;2022-09-24T09:58:09;17.20;99.90
12481;DHT22;6305;48.398;11.762;2022-09-24T10:00:36;17.30;99.90
12481;DHT22;6305;48.398;11.762;2022-09-24T10:03:05;17.20;99.90
12481;DHT22;6305;48.398;11.762;2022-09-24T10:05:32;17.10;99.90
12481;DHT22;6305;48.398;11.762;2022-09-24T10:07:59;17.00;99.90
12481;DHT22;6305;48.398;11.762;2022-09-24T10:10:27;17.00;99.90
12481;DHT22;6305;48.398;11.762;2022-09-24T10:13:08;17.20;99.90
12481;DHT22;6305;48.398;11.762;2022-09-24T10:15:46;17.30;99.90
12481;DHT22;6305;48.398;11.762;2022-09-24T10:18:16;17.10;99.90
12481;DHT22;6305;48.398;11.762;2022-09-24T10:20:45;17.00;99.90
12481;DHT22;6305;48.398;11.762;2022-09-24T10:23:19;16.70;99.90
12481;DHT22;6305;48.398;11.762;2022-09-24T10:25:51;16.60;99.90
12481;DHT22;6305;48.398;11.762;2022-09-24T10:28:19;16.60;99.90
12481;DHT22;6305;48.398;11.762;2022-09-24T10:31:11;16.60;99.90
12481;DHT22;6305;48.398;11.762;2022-09-24T10:33:41;16.70;99.90
12481;DHT22;6305;48.398;11.762;2022-09-24T10:36:14;16.70;99.90
12481;DHT22;6305;48.398;11.762;2022-09-24T10:38:41;16.80;99.90
12481;DHT22;6305;48.398;11.762;2022-09-24T10:41:14;16.80;99.90
12481;DHT22;6305;48.398;11.762;2022-09-24T10:43:49;16.80;99.90
12481;DHT22;6305;48.398;11.762;2022-09-24T10:49:29;16.80;99.90
12481;DHT22;6305;48.398;11.762;2022-09-24T10:52:02;16.60;99.90
12481;DHT22;6305;48.398;11.762;2022-09-24T10:54:44;16.60;99.90
12481;DHT22;6305;48.398;11.762;2022-09-24T10:57:23;16.40;99.90
12481;DHT22;6305;48.398;11.762;2022-09-24T10:59:58;16.20;99.90
12481;DHT22;6305;48.398;11.762;2022-09-24T11:02:56;16.00;99.90
12481;DHT22;6305;48.398;11.762;2022-09-24T11:05:32;15.80;99.90
12481;DHT22;6305;48.398;11.762;2022-09-24T11:08:07;15.80;99.90
12481;DHT22;6305;48.398;11.762;2022-09-24T11:10:52;15.80;99.90
12481;DHT22;6305;48.398;11.762;2022-09-24T11:13:29;15.80;99.90
12481;DHT22;6305;48.398;11.762;2022-09-24T11:16:25;15.70;99.90
12481;DHT22;6305;48.398;11.762;2022-09-24T11:18:58;15.70;99.90
12481;DHT22;6305;48.398;11.762;2022-09-24T11:21:42;15.80;99.90
12481;DHT22;6305;48.398;11.762;2022-09-24T11:27:19;15.90;99.90
12481;DHT22;6305;48.398;11.762;2022-09-24T11:30:00;15.90;99.90
12481;DHT22;6305;48.398;11.762;2022-09-24T11:32:33;15.90;99.90
12481;DHT22;6305;48.398;11.762;2022-09-24T11:35:26;15.90;99.90
12481;DHT22;6305;48.398;11.762;2022-09-24T11:38:00;15.90;99.90
12481;DHT22;6305;48.398;11.762;2022-09-24T11:40:48;16.00;99.90
12481;DHT22;6305;48.398;11.762;2022-09-24T11:46:18;16.00;99.90
12481;DHT22;6305;48.398;11.762;2022-09-24T11:49:07;16.00;99.90
12481;DHT22;6305;48.398;11.762;2022-09-24T11:51:49;15.90;99.90
12481;DHT22;6305;48.398;11.762;2022-09-24T11:54:24;15.90;99.90
12481;DHT22;6305;48.398;11.762;2022-09-24T11:56:56;16.00;99.90
12481;DHT22;6305;48.398;11.762;2022-09-24T11:59:32;16.10;99.90
12481;DHT22;6305;48.398;11.762;2022-09-24T12:02:04;16.20;99.90
12481;DHT22;6305;48.398;11.762;2022-09-24T12:04:45;16.50;99.90
12481;DHT22;6305;48.398;11.762;2022-09-24T12:07:19;16.70;99.90
12481;DHT22;6305;48.398;11.762;2022-09-24T12:09:53;16.90;99.90
12481;DHT22;6305;48.398;11.762;2022-09-24T12:12:25;17.00;99.90
12481;DHT22;6305;48.398;11.762;2022-09-24T12:14:56;17.10;99.90
12481;DHT22;6305;48.398;11.762;2022-09-24T12:17:29;16.90;99.90
12481;DHT22;6305;48.398;11.762;2022-09-24T12:20:00;16.90;99.90
12481;DHT22;6305;48.398;11.762;2022-09-24T12:22:29;16.90;99.90
12481;DHT22;6305;48.398;11.762;2022-09-24T12:24:59;16.80;99.90
12481;DHT22;6305;48.398;11.762;2022-09-24T12:27:30;16.60;99.90
12481;DHT22;6305;48.398;11.762;2022-09-24T12:30:04;16.40;99.90
12481;DHT22;6305;48.398;11.762;2022-09-24T12:32:53;16.20;99.90
12481;DHT22;6305;48.398;11.762;2022-09-24T12:35:40;16.10;99.90
12481;DHT22;6305;48.398;11.762;2022-09-24T12:38:11;15.90;99.90
12481;DHT22;6305;48.398;11.762;2022-09-24T12:41:17;15.80;99.90
12481;DHT22;6305;48.398;11.762;2022-09-24T12:43:50;15.80;99.90
12481;DHT22;6305;48.398;11.762;2022-09-24T12:46:20;15.90;99.90
12481;DHT22;6305;48.398;11.762;2022-09-24T12:48:49;15.90;99.90
12481;DHT22;6305;48.398;11.762;2022-09-24T12:51:18;15.90;99.90
12481;DHT22;6305;48.398;11.762;2022-09-24T12:53:57;15.90;99.90
12481;DHT22;6305;48.398;11.762;2022-09-24T12:56:27;15.70;99.90
12481;DHT22;6305;48.398;11.762;2022-09-24T12:58:57;15.70;99.90
12481;DHT22;6305;48.398;11.762;2022-09-24T13:01:29;15.60;99.90
12481;DHT22;6305;48.398;11.762;2022-09-24T13:06:50;15.60;99.90
12481;DHT22;6305;48.398;11.762;2022-09-24T13:09:25;15.60;99.90
12481;DHT22;6305;48.398;11.762;2022-09-24T13:12:17;15.70;99.90
12481;DHT22;6305;48.398;11.762;2022-09-24T13:14:49;15.70;99.90
12481;DHT22;6305;48.398;11.762;2022-09-24T13:17:17;15.90;99.90
12481;DHT22;6305;48.398;11.762;2022-09-24T13:19:45;16.00;99.90
12481;DHT22;6305;48.398;11.762;2022-09-24T13:22:24;16.20;99.90
12481;DHT22;6305;48.398;11.762;2022-09-24T13:25:03;16.40;99.90
12481;DHT22;6305;48.398;11.762;2022-09-24T13:27:38;16.50;99.90
12481;DHT22;6305;48.398;11.762;2022-09-24T13:30:15;16.50;99.90
12481;DHT22;6305;48.398;11.762;2022-09-24T13:32:48;16.50;99.90
12481;DHT22;6305;48.398;11.762;2022-09-24T13:35:21;16.60;99.90
12481;DHT22;6305;48.398;11.762;2022-09-24T13:37:52;16.70;99.90
12481;DHT22;6305;48.398;11.762;2022-09-24T13:40:26;16.90;99.90
12481;DHT22;6305;48.398;11.762;2022-09-24T13:42:59;17.00;99.90
12481;DHT22;6305;48.398;11.762;2022-09-24T13:45:29;17.30;99.90
12481;DHT22;6305;48.398;11.762;2022-09-24T13:48:01;17.70;99.90
12481;DHT22;6305;48.398;11.762;2022-09-24T13:50:32;18.00;99.90
12481;DHT22;6305;48.398;11.762;2022-09-24T13:53:02;18.40;99.90
12481;DHT22;6305;48.398;11.762;2022-09-24T13:55:32;18.70;99.90
12481;DHT22;6305;48.398;11.762;2022-09-24T13:58:01;18.80;99.90
12481;DHT22;6305;48.398;11.762;2022-09-24T14:00:28;18.60;99.90
12481;DHT22;6305;48.398;11.762;2022-09-24T14:02:59;18.40;99.90
12481;DHT22;6305;48.398;11.762;2022-09-24T14:05:28;18.10;99.90
12481;DHT22;6305;48.398;11.762;2022-09-24T14:08:00;17.90;99.90
12481;DHT22;6305;48.398;11.762;2022-09-24T14:10:29;17.70;99.90
12481;DHT22;6305;48.398;11.762;2022-09-24T14:13:13;17.70;99.90
12481;DHT22;6305;48.398;11.762;2022-09-24T14:15:53;17.60;99.90
12481;DHT22;6305;48.398;11.762;2022-09-24T14:18:20;17.50;99.90
12481;DHT22;6305;48.398;11.762;2022-09-24T14:20:51;17.50;99.90
12481;DHT22;6305;48.398;11.762;2022-09-24T14:23:20;17.60;99.90
12481;DHT22;6305;48.398;11.762;2022-09-24T14:25:50;17.60;99.90
12481;DHT22;6305;48.398;11.762;2022-09-24T14:28:20;17.50;99.90
12481;DHT22;6305;48.398;11.762;2022-09-24T14:30:49;17.40;99.90
12481;DHT22;6305;48.398;11.762;2022-09-24T14:33:19;17.20;99.90
12481;DHT22;6305;48.398;11.762;2022-09-24T14:35:51;17.10;99.90
12481;DHT22;6305;48.398;11.762;2022-09-24T14:38:21;16.90;99.90
12481;DHT22;6305;48.398;11.762;2022-09-24T14:40:50;16.90;99.90
12481;DHT22;6305;48.398;11.762;2022-09-24T14:43:23;16.90;99.90
12481;DHT22;6305;48.398;11.762;2022-09-24T14:46:01;16.90;99.90
12481;DHT22;6305;48.398;11.762;2022-09-24T14:48:29;17.00;99.90
12481;DHT22;6305;48.398;11.762;2022-09-24T14:50:57;17.00;99.90
12481;DHT22;6305;48.398;11.762;2022-09-24T14:53:26;17.20;99.90
12481;DHT22;6305;48.398;11.762;2022-09-24T14:55:54;17.30;99.90
12481;DHT22;6305;48.398;11.762;2022-09-24T14:58:25;17.30;99.90
12481;DHT22;6305;48.398;11.762;2022-09-24T15:00:53;17.20;99.90
12481;DHT22;6305;48.398;11.762;2022-09-24T15:03:26;17.20;99.90
12481;DHT22;6305;48.398;11.762;2022-09-24T15:06:04;17.10;99.90
12481;DHT22;6305;48.398;11.762;2022-09-24T15:08:31;17.00;99.90
12481;DHT22;6305;48.398;11.762;2022-09-24T15:11:01;16.80;99.90
12481;DHT22;6305;48.398;11.762;2022-09-24T15:13:31;16.60;99.90
12481;DHT22;6305;48.398;11.762;2022-09-24T15:16:04;16.50;99.90
12481;DHT22;6305;48.398;11.762;2022-09-24T15:18:31;16.40;99.90
12481;DHT22;6305;48.398;11.762;2022-09-24T15:20:59;16.30;99.90
12481;DHT22;6305;48.398;11.762;2022-09-24T15:23:30;16.20;99.90
12481;DHT22;6305;48.398;11.762;2022-09-24T15:25:57;16.20;99.90
12481;DHT22;6305;48.398;11.762;2022-09-24T15:28:24;16.20;99.90
12481;DHT22;6305;48.398;11.762;2022-09-24T15:30:55;16.20;99.90
12481;DHT22;6305;48.398;11.762;2022-09-24T15:33:22;16.00;99.90
12481;DHT22;6305;48.398;11.762;2022-09-24T15:35:48;15.90;99.90
12481;DHT22;6305;48.398;11.762;2022-09-24T15:38:17;15.80;99.90
12481;DHT22;6305;48.398;11.762;2022-09-24T15:40:45;15.70;99.90
12481;DHT22;6305;48.398;11.762;2022-09-24T15:43:18;15.60;99.90
12481;DHT22;6305;48.398;11.762;2022-09-24T15:45:45;15.50;99.90
12481;DHT22;6305;48.398;11.762;2022-09-24T15:48:14;15.40;99.90
12481;DHT22;6305;48.398;11.762;2022-09-24T15:50:42;15.10;99.90
12481;DHT22;6305;48.398;11.762;2022-09-24T15:53:17;14.90;99.90
12481;DHT22;6305;48.398;11.762;2022-09-24T15:55:44;14.80;99.90
12481;DHT22;6305;48.398;11.762;2022-09-24T15:58:14;14.60;99.90
12481;DHT22;6305;48.398;11.762;2022-09-24T16:00:41;14.40;99.90
12481;DHT22;6305;48.398;11.762;2022-09-24T16:03:15;14.30;99.90
12481;DHT22;6305;48.398;11.762;2022-09-24T16:05:42;14.20;99.90
12481;DHT22;6305;48.398;11.762;2022-09-24T16:08:09;14.10;99.90
12481;DHT22;6305;48.398;11.762;2022-09-24T16:10:36;14.00;99.90
12481;DHT22;6305;48.398;11.762;2022-09-24T16:13:03;13.90;99.90